Time;durP1;ratioP1;P1;durP2;ratioP2;P2;SDS_P1;SDS_P2;PMS_P1;PMS_P2;Temp;Humidity;BMP_temperature;BMP_pressure;BME280_temperature;BME280_humidity;BME280_pressure;Samples;Min_cycle;Max_cycle;Signal;HPM_P1;HPM_P2
2023/09/06 17:23:47;;;;;;;1.83;1.73;;;28.90;68.30;;;;;;2503706;23;20239;-77
2023/09/06 17:24:49;;;;;;;3.22;2.15;;;28.90;67.20;;;;;;2481375;23;20028;-76
2023/09/06 17:25:50;;;;;;;3.15;2.53;;;28.90;67.70;;;;;;2481350;23;20028;-76
2023/09/06 17:26:52;;;;;;;11.18;2.40;;;28.90;67.90;;;;;;2491256;23;20075;-76
2023/09/06 17:27:55;;;;;;;2.75;2.25;;;28.90;66.70;;;;;;2493827;23;19999;-76
2023/09/06 17:28:56;;;;;;;2.30;2.10;;;28.90;67.60;;;;;;2494179;23;20047;-76
2023/09/06 17:29:58;;;;;;;3.88;2.28;;;28.80;68.90;;;;;;2495593;23;20070;-76
2023/09/06 17:31:01;;;;;;;6.28;2.50;;;28.80;69.80;;;;;;2495051;23;20447;-76
2023/09/06 17:32:04;;;;;;;2.30;2.10;;;28.80;68.20;;;;;;2495039;23;20003;-75
2023/09/06 17:33:13;;;;;;;3.50;2.05;;;28.80;70.30;;;;;;2493671;23;20007;-76
2023/09/06 17:34:13;;;;;;;2.10;1.90;;;28.80;69.50;;;;;;2492352;23;20441;-76
2023/09/06 17:35:14;;;;;;;5.32;2.33;;;28.80;68.00;;;;;;2482363;23;20394;-76
2023/09/06 17:36:15;;;;;;;2.40;2.25;;;28.70;67.40;;;;;;2495388;23;20023;-76
2023/09/06 17:37:16;;;;;;;5.97;2.50;;;28.70;69.60;;;;;;2494403;23;20007;-76
2023/09/06 17:38:18;;;;;;;2.70;2.15;;;28.70;68.30;;;;;;2483077;23;20011;-76
2023/09/06 17:39:18;;;;;;;2.58;2.40;;;28.70;69.60;;;;;;2481813;23;20003;-76
2023/09/06 17:40:19;;;;;;;3.22;2.47;;;28.70;69.20;;;;;;2495576;23;20451;-76
2023/09/06 17:41:22;;;;;;;3.33;2.80;;;28.60;69.30;;;;;;2494832;23;20007;-76
2023/09/06 17:42:23;;;;;;;3.08;2.28;;;28.60;68.30;;;;;;2481790;23;20146;-76
2023/09/06 17:43:26;;;;;;;3.35;2.80;;;28.60;69.50;;;;;;2482664;23;20008;-76
2023/09/06 17:44:26;;;;;;;2.80;2.60;;;28.60;68.70;;;;;;2493917;23;20343;-76
2023/09/06 17:45:27;;;;;;;3.65;2.53;;;28.60;69.90;;;;;;2471196;24;20009;-76
2023/09/06 17:46:28;;;;;;;3.38;2.63;;;28.50;70.50;;;;;;2482741;23;20014;-76
2023/09/06 17:47:29;;;;;;;8.02;2.80;;;28.50;71.50;;;;;;2495005;23;20088;-76
2023/09/06 17:48:30;;;;;;;4.72;2.35;;;28.50;70.80;;;;;;2495588;23;20100;-76
2023/09/06 17:49:31;;;;;;;3.05;2.65;;;28.50;71.20;;;;;;2494332;23;20007;-76
2023/09/06 17:50:37;;;;;;;2.63;2.35;;;28.50;71.40;;;;;;2494694;23;20033;-77
2023/09/06 17:51:38;;;;;;;3.67;2.85;;;28.40;70.50;;;;;;2482744;23;20468;-76
2023/09/06 17:52:39;;;;;;;3.97;2.50;;;28.40;71.20;;;;;;2482051;23;20015;-77
2023/09/06 17:53:39;;;;;;;4.05;2.80;;;28.40;72.20;;;;;;2494422;23;20003;-77
2023/09/06 17:54:40;;;;;;;4.53;2.60;;;28.40;73.40;;;;;;2493900;23;20010;-77
2023/09/06 17:55:41;;;;;;;3.50;2.40;;;28.30;73.10;;;;;;2492871;23;20114;-78
2023/09/06 17:56:49;;;;;;;3.83;2.55;;;28.30;73.20;;;;;;2494174;23;19999;-77
2023/09/06 17:57:49;;;;;;;3.58;2.40;;;28.30;74.60;;;;;;2495072;23;20011;-77
2023/09/06 17:58:50;;;;;;;4.55;2.78;;;28.30;74.70;;;;;;2482660;23;20011;-77
2023/09/06 17:59:52;;;;;;;2.78;2.40;;;28.20;75.70;;;;;;2482301;23;20008;-77
2023/09/06 18:00:52;;;;;;;4.45;2.80;;;28.20;75.90;;;;;;2482182;23;20019;-77
2023/09/06 18:01:53;;;;;;;2.72;2.47;;;28.20;76.50;;;;;;2481856;23;20011;-77
2023/09/06 18:02:53;;;;;;;5.95;2.67;;;28.10;76.40;;;;;;2482736;23;20073;-77
2023/09/06 18:03:57;;;;;;;10.48;3.00;;;28.00;76.40;;;;;;2482251;23;20072;-77
2023/09/06 18:04:59;;;;;;;3.88;2.42;;;28.00;76.60;;;;;;2494454;23;20059;-77
2023/09/06 18:06:00;;;;;;;5.30;2.80;;;28.00;77.30;;;;;;2482589;23;20018;-77
2023/09/06 18:07:01;;;;;;;4.45;3.17;;;28.00;78.10;;;;;;2482656;23;20007;-77
2023/09/06 18:08:01;;;;;;;4.65;2.25;;;27.90;78.40;;;;;;2494888;23;20000;-77
2023/09/06 18:09:07;;;;;;;2.88;2.50;;;27.80;78.90;;;;;;2494538;23;20010;-77
2023/09/06 18:10:08;;;;;;;7.63;3.13;;;27.80;79.60;;;;;;2495460;23;20072;-77
2023/09/06 18:11:09;;;;;;;3.70;2.60;;;27.80;79.80;;;;;;2493481;23;20011;-77
2023/09/06 18:12:10;;;;;;;3.20;2.35;;;27.70;80.20;;;;;;2494123;23;20729;-77
2023/09/06 18:13:11;;;;;;;6.50;2.70;;;27.70;80.60;;;;;;2482884;23;20508;-77
2023/09/06 18:14:12;;;;;;;4.47;2.58;;;27.60;81.10;;;;;;2482758;23;20645;-77
2023/09/06 18:15:14;;;;;;;2.85;2.28;;;27.60;81.70;;;;;;2494345;23;20400;-77
2023/09/06 18:16:15;;;;;;;3.05;2.40;;;27.60;82.80;;;;;;2494035;23;20007;-77
2023/09/06 18:17:16;;;;;;;3.88;2.38;;;27.50;83.10;;;;;;2480884;23;20046;-77
2023/09/06 18:18:18;;;;;;;4.25;3.10;;;27.50;83.60;;;;;;2482624;23;20007;-77
2023/09/06 18:19:25;;;;;;;2.92;2.17;;;27.40;83.60;;;;;;2492364;23;20094;-78
2023/09/06 18:20:32;;;;;;;3.88;2.50;;;27.40;84.40;;;;;;2492647;23;20094;-77
2023/09/06 18:21:33;;;;;;;2.85;2.55;;;27.30;84.90;;;;;;2482918;23;20007;-77
2023/09/06 18:22:34;;;;;;;3.65;2.50;;;27.20;85.50;;;;;;2494038;23;20014;-77
2023/09/06 18:23:37;;;;;;;3.60;2.78;;;27.20;86.30;;;;;;2494335;23;20082;-77
2023/09/06 18:24:38;;;;;;;5.13;2.55;;;27.10;86.80;;;;;;2507630;23;20378;-77
2023/09/06 18:25:40;;;;;;;4.35;3.08;;;27.10;87.20;;;;;;2517284;23;20002;-77
2023/09/06 18:26:41;;;;;;;5.82;3.58;;;27.00;87.60;;;;;;2505899;23;19999;-77
2023/09/06 18:27:41;;;;;;;4.13;2.92;;;27.00;87.90;;;;;;2506991;23;20084;-77
2023/09/06 18:28:42;;;;;;;5.85;3.20;;;26.90;88.50;;;;;;2506870;23;20007;-77
2023/09/06 18:29:43;;;;;;;6.38;3.90;;;26.90;89.00;;;;;;2507029;23;20088;-77
2023/09/06 18:30:44;;;;;;;3.65;3.33;;;26.90;89.30;;;;;;2518457;23;20029;-77
2023/09/06 18:31:45;;;;;;;6.57;3.80;;;26.80;90.00;;;;;;2517750;23;20066;-77
2023/09/06 18:32:46;;;;;;;5.95;4.45;;;26.80;90.20;;;;;;2519084;23;20473;-77
2023/09/06 18:33:47;;;;;;;6.22;4.00;;;26.70;90.40;;;;;;2518502;23;20061;-77
2023/09/06 18:34:47;;;;;;;4.25;3.85;;;26.70;90.70;;;;;;2508254;23;20040;-77
2023/09/06 18:35:51;;;;;;;5.55;5.00;;;26.60;91.10;;;;;;2507002;23;20017;-77
2023/09/06 18:36:51;;;;;;;6.38;4.85;;;26.60;91.40;;;;;;2507985;23;20003;-77
2023/09/06 18:37:52;;;;;;;5.70;4.10;;;26.50;91.40;;;;;;2507455;23;20006;-73
2023/09/06 18:38:53;;;;;;;11.07;5.78;;;26.50;92.20;;;;;;2506878;23;20391;-73
2023/09/06 18:39:54;;;;;;;5.72;4.80;;;26.50;92.00;;;;;;2507242;23;20006;-73
2023/09/06 18:40:54;;;;;;;7.93;5.03;;;26.50;92.40;;;;;;2507846;23;20003;-73
2023/09/06 18:41:55;;;;;;;9.73;5.40;;;26.40;92.70;;;;;;2506811;23;20003;-73
2023/09/06 18:42:55;;;;;;;8.63;5.85;;;26.30;93.00;;;;;;2506671;23;19999;-73
2023/09/06 18:43:56;;;;;;;6.25;5.40;;;26.30;93.20;;;;;;2508069;23;20102;-73
2023/09/06 18:44:56;;;;;;;7.03;5.25;;;26.30;92.70;;;;;;2507381;23;20023;-74
2023/09/06 18:45:58;;;;;;;5.55;4.82;;;26.20;92.30;;;;;;2508168;23;20003;-74
2023/09/06 18:46:59;;;;;;;5.28;4.43;;;26.20;93.20;;;;;;2506871;23;20007;-73
2023/09/06 18:47:59;;;;;;;7.53;4.75;;;26.10;93.50;;;;;;2506427;23;20078;-73
2023/09/06 18:49:04;;;;;;;7.20;5.18;;;26.10;93.10;;;;;;2507566;23;20022;-73
2023/09/06 18:50:07;;;;;;;5.68;5.13;;;26.10;93.10;;;;;;2506869;23;20003;-73
2023/09/06 18:51:07;;;;;;;8.43;4.53;;;26.00;93.30;;;;;;2505198;23;20022;-73
2023/09/06 18:52:08;;;;;;;6.35;4.32;;;26.00;93.60;;;;;;2507091;23;20006;-73
2023/09/06 18:53:09;;;;;;;5.80;4.28;;;26.00;94.00;;;;;;2507589;23;20007;-73
2023/09/06 18:54:09;;;;;;;5.25;3.63;;;26.00;93.90;;;;;;2506381;23;20093;-73
2023/09/06 18:55:11;;;;;;;6.07;3.95;;;25.90;94.10;;;;;;2507879;23;20044;-73
2023/09/06 18:56:12;;;;;;;3.22;2.97;;;25.90;94.20;;;;;;2507303;23;20015;-73
2023/09/06 18:57:14;;;;;;;4.18;3.70;;;25.90;94.00;;;;;;2507519;23;20003;-73
2023/09/06 18:58:18;;;;;;;4.85;3.67;;;25.80;94.40;;;;;;2507070;23;20066;-73
2023/09/06 18:59:19;;;;;;;4.43;3.25;;;25.80;94.60;;;;;;2506989;23;20086;-73
2023/09/06 19:00:22;;;;;;;4.20;3.80;;;25.80;94.60;;;;;;2507699;23;20021;-73
2023/09/06 19:01:22;;;;;;;6.85;3.88;;;25.70;95.10;;;;;;2503256;23;20011;-73
2023/09/06 19:02:23;;;;;;;3.70;2.88;;;25.70;94.70;;;;;;2506444;23;20003;-73
2023/09/06 19:03:23;;;;;;;5.97;3.65;;;25.70;95.40;;;;;;2507974;23;20093;-73
2023/09/06 19:04:24;;;;;;;4.13;3.10;;;25.70;95.20;;;;;;2506371;23;20093;-73
2023/09/06 19:05:25;;;;;;;4.95;3.40;;;25.60;95.20;;;;;;2507108;23;20037;-73
2023/09/06 19:06:29;;;;;;;4.97;2.80;;;25.60;95.70;;;;;;2506936;23;20500;-73
2023/09/06 19:07:30;;;;;;;5.15;3.10;;;25.60;95.60;;;;;;2507890;23;20007;-73
2023/09/06 19:08:32;;;;;;;5.25;3.05;;;25.50;95.80;;;;;;2507169;23;20010;-73
2023/09/06 19:09:32;;;;;;;4.03;3.38;;;25.50;95.20;;;;;;2507143;23;20392;-74
2023/09/06 19:10:34;;;;;;;5.78;3.10;;;25.50;95.40;;;;;;2506760;23;20064;-74
2023/09/06 19:11:36;;;;;;;4.45;3.13;;;25.50;96.00;;;;;;2507876;23;20003;-74
2023/09/06 19:12:38;;;;;;;4.13;3.03;;;25.50;96.20;;;;;;2507161;23;20034;-73
2023/09/06 19:13:38;;;;;;;3.15;2.90;;;25.40;95.90;;;;;;2507422;23;20007;-74
2023/09/06 19:14:39;;;;;;;4.20;3.22;;;25.40;96.40;;;;;;2507297;23;20010;-73
2023/09/06 19:15:40;;;;;;;5.40;3.15;;;25.40;96.60;;;;;;2507909;23;20003;-74
2023/09/06 19:16:40;;;;;;;3.15;2.85;;;25.40;96.90;;;;;;2506515;23;20496;-74
2023/09/06 19:17:41;;;;;;;4.13;3.13;;;25.40;97.20;;;;;;2506724;23;20003;-74
2023/09/06 19:18:41;;;;;;;3.88;3.47;;;25.40;97.20;;;;;;2506267;23;20011;-73
2023/09/06 19:19:42;;;;;;;5.70;3.55;;;25.30;97.30;;;;;;2505622;23;20474;-73
2023/09/06 19:20:43;;;;;;;5.60;3.00;;;25.30;97.20;;;;;;2506858;23;20007;-73
2023/09/06 19:21:43;;;;;;;3.95;3.25;;;25.30;97.60;;;;;;2507422;23;20007;-73
2023/09/06 19:22:44;;;;;;;4.05;3.08;;;25.30;98.00;;;;;;2506008;23;20010;-73
2023/09/06 19:23:44;;;;;;;3.72;3.40;;;25.20;97.80;;;;;;2507143;23;20623;-74
2023/09/06 19:24:45;;;;;;;4.55;3.20;;;25.20;98.30;;;;;;2498623;23;20039;-73
2023/09/06 19:25:53;;;;;;;5.07;3.08;;;25.20;98.60;;;;;;2482832;23;20136;-73
2023/09/06 19:26:54;;;;;;;4.15;3.10;;;25.20;98.70;;;;;;2483424;23;20042;-73
2023/09/06 19:27:54;;;;;;;4.00;3.38;;;25.20;98.80;;;;;;2495137;23;20004;-73
2023/09/06 19:28:55;;;;;;;4.32;3.85;;;25.10;99.30;;;;;;2494412;23;20035;-74
2023/09/06 19:29:56;;;;;;;4.22;3.10;;;25.10;99.30;;;;;;2495402;23;20003;-77
2023/09/06 19:30:58;;;;;;;4.28;3.33;;;25.10;99.70;;;;;;2494875;23;20010;-73
2023/09/06 19:31:59;;;;;;;4.55;3.33;;;25.10;99.40;;;;;;2494893;23;20002;-72
2023/09/06 19:32:59;;;;;;;8.15;3.20;;;25.10;99.70;;;;;;2494970;23;20023;-72
2023/09/06 19:34:00;;;;;;;5.35;3.50;;;25.00;99.50;;;;;;2494858;23;19999;-72
2023/09/06 19:35:01;;;;;;;5.28;3.17;;;25.00;99.20;;;;;;2495980;23;20022;-72
2023/09/06 19:36:02;;;;;;;4.50;3.28;;;25.00;99.40;;;;;;2496103;23;20049;-72
2023/09/06 19:37:03;;;;;;;5.88;3.67;;;25.00;99.60;;;;;;2494907;23;20030;-72
2023/09/06 19:38:04;;;;;;;4.47;4.05;;;24.90;99.90;;;;;;2495935;23;19999;-73
2023/09/06 19:39:08;;;;;;;5.38;4.88;;;25.00;99.80;;;;;;2494550;23;20010;-73
2023/09/06 19:40:09;;;;;;;8.48;4.30;;;24.90;99.90;;;;;;2495629;23;20462;-72
2023/09/06 19:41:09;;;;;;;5.45;4.03;;;24.90;99.90;;;;;;2495147;23;20424;-72
2023/09/06 19:42:10;;;;;;;4.00;3.38;;;24.90;99.90;;;;;;2495006;23;20127;-72
2023/09/06 19:43:10;;;;;;;5.18;3.10;;;24.80;99.90;;;;;;2495541;23;20030;-72
2023/09/06 19:44:11;;;;;;;5.07;3.80;;;24.90;99.90;;;;;;2495097;23;20006;-72
2023/09/06 19:45:12;;;;;;;5.57;2.85;;;24.90;99.90;;;;;;2495242;23;20078;-73
2023/09/06 19:46:12;;;;;;;3.75;3.45;;;24.80;99.90;;;;;;2496314;23;20004;-72
2023/09/06 19:47:16;;;;;;;4.03;3.00;;;24.80;99.90;;;;;;2494667;23;20078;-72
2023/09/06 19:48:17;;;;;;;3.10;2.72;;;24.80;99.90;;;;;;2495653;23;20428;-72
2023/09/06 19:49:18;;;;;;;5.88;2.97;;;24.80;99.90;;;;;;2494699;23;20140;-72
2023/09/06 19:50:18;;;;;;;4.80;3.47;;;24.80;99.90;;;;;;2495037;23;20667;-72
2023/09/06 19:51:19;;;;;;;5.28;2.80;;;24.80;99.90;;;;;;2495076;23;20039;-72
2023/09/06 19:52:19;;;;;;;4.15;2.88;;;24.80;99.90;;;;;;2493211;23;20063;-72
2023/09/06 19:53:20;;;;;;;6.07;2.95;;;24.80;99.90;;;;;;2494053;23;20064;-72
2023/09/06 19:54:20;;;;;;;7.00;3.67;;;24.70;99.90;;;;;;2493990;23;20007;-72
2023/09/06 19:55:22;;;;;;;6.25;3.30;;;24.80;99.90;;;;;;2493796;23;20014;-72
2023/09/06 19:56:23;;;;;;;4.18;3.47;;;24.70;99.90;;;;;;2494436;23;20015;-72
2023/09/06 19:57:23;;;;;;;4.45;3.05;;;24.70;99.90;;;;;;2494448;23;20011;-72
2023/09/06 19:58:24;;;;;;;5.03;3.40;;;24.70;99.90;;;;;;2481720;23;20028;-72
2023/09/06 19:59:24;;;;;;;3.70;3.17;;;24.70;99.90;;;;;;2481246;23;20011;-72
2023/09/06 20:00:25;;;;;;;3.50;3.20;;;24.70;99.90;;;;;;2494508;23;20367;-72
2023/09/06 20:01:25;;;;;;;8.15;3.25;;;24.70;99.90;;;;;;2494288;23;20019;-73
2023/09/06 20:02:26;;;;;;;3.47;3.10;;;24.70;99.90;;;;;;2494331;23;20046;-73
2023/09/06 20:03:27;;;;;;;5.30;2.95;;;24.60;99.90;;;;;;2494375;23;20008;-73
2023/09/06 20:04:30;;;;;;;4.80;3.28;;;24.60;99.90;;;;;;2493248;23;20007;-74
2023/09/06 20:05:31;;;;;;;4.20;3.20;;;24.60;99.90;;;;;;2481292;23;20007;-73
2023/09/06 20:06:32;;;;;;;3.88;3.45;;;24.60;99.90;;;;;;2481191;23;20742;-73
2023/09/06 20:07:33;;;;;;;6.18;3.00;;;24.60;99.90;;;;;;2480983;23;20004;-74
2023/09/06 20:08:34;;;;;;;3.80;3.35;;;24.60;99.90;;;;;;2492288;23;20031;-74
2023/09/06 20:09:34;;;;;;;3.42;3.13;;;24.50;99.90;;;;;;2493741;23;20018;-73
2023/09/06 20:10:44;;;;;;;3.75;2.85;;;24.50;99.90;;;;;;2481451;23;20463;-73
2023/09/06 20:11:46;;;;;;;;;;;24.50;99.90;;;;;;2484713;23;20008;-73
2023/09/06 20:12:46;;;;;;;3.15;2.85;;;24.40;99.90;;;;;;2493946;23;19906;-73
2023/09/06 20:13:47;;;;;;;4.53;3.55;;;24.30;99.90;;;;;;2494204;23;20011;-74
2023/09/06 20:14:48;;;;;;;3.63;3.17;;;24.30;99.90;;;;;;2494869;23;20007;-73
2023/09/06 20:15:49;;;;;;;4.82;3.38;;;24.30;99.90;;;;;;2494288;23;20031;-73
2023/09/06 20:16:49;;;;;;;5.47;3.38;;;24.30;99.90;;;;;;2493769;23;20431;-74
2023/09/06 20:17:50;;;;;;;4.15;3.30;;;24.20;99.90;;;;;;2494228;23;20034;-73
2023/09/06 20:18:57;;;;;;;3.50;3.17;;;24.20;99.90;;;;;;2494341;23;20034;-73
2023/09/06 20:19:59;;;;;;;7.85;3.40;;;24.20;99.90;;;;;;2494865;23;20011;-73
2023/09/06 20:21:05;;;;;;;6.32;3.20;;;24.10;99.90;;;;;;2494095;23;20423;-73
2023/09/06 20:22:06;;;;;;;3.85;3.42;;;24.10;99.90;;;;;;2494081;23;20011;-73
2023/09/06 20:23:07;;;;;;;7.88;3.55;;;24.10;99.90;;;;;;2481889;23;20046;-73
2023/09/06 20:24:07;;;;;;;5.63;3.58;;;24.10;99.90;;;;;;2481836;23;20582;-73
2023/09/06 20:25:08;;;;;;;5.50;3.50;;;24.00;99.90;;;;;;2494417;23;20614;-73
2023/09/06 20:26:08;;;;;;;4.32;3.15;;;24.00;99.90;;;;;;2494708;23;20095;-73
2023/09/06 20:27:09;;;;;;;4.63;3.08;;;24.00;99.90;;;;;;2494056;23;20003;-73
2023/09/06 20:28:09;;;;;;;4.18;3.22;;;23.90;99.90;;;;;;2494368;23;20121;-73
2023/09/06 20:29:10;;;;;;;3.97;3.17;;;23.90;99.90;;;;;;2493668;23;20010;-73
2023/09/06 20:30:11;;;;;;;5.63;3.30;;;23.90;99.90;;;;;;2480976;23;20014;-73
2023/09/06 20:31:12;;;;;;;3.35;3.05;;;23.80;99.90;;;;;;2481503;23;20036;-73
2023/09/06 20:32:12;;;;;;;3.63;2.97;;;23.80;99.90;;;;;;2492605;23;20076;-73
2023/09/06 20:33:13;;;;;;;6.70;3.50;;;23.80;99.90;;;;;;2494073;23;20441;-73
2023/09/06 20:34:14;;;;;;;4.78;3.05;;;23.70;99.90;;;;;;2493687;23;20122;-73
2023/09/06 20:35:14;;;;;;;10.35;3.60;;;23.70;99.90;;;;;;2493355;23;20015;-73
2023/09/06 20:36:15;;;;;;;4.93;3.58;;;23.70;99.90;;;;;;2494083;23;20443;-73
2023/09/06 20:37:15;;;;;;;8.70;3.42;;;23.70;99.90;;;;;;2494842;23;20080;-73
2023/09/06 20:38:17;;;;;;;5.43;3.40;;;23.70;99.90;;;;;;2493631;23;20034;-73
2023/09/06 20:39:17;;;;;;;6.35;3.67;;;23.60;99.90;;;;;;2492743;23;20015;-73
2023/09/06 20:40:18;;;;;;;4.95;3.50;;;23.60;99.90;;;;;;2493522;23;20015;-73
2023/09/06 20:41:18;;;;;;;3.72;3.25;;;23.60;99.90;;;;;;2481467;23;20457;-73
2023/09/06 20:42:19;;;;;;;7.25;3.47;;;23.50;99.90;;;;;;2481911;23;20046;-73
2023/09/06 20:43:19;;;;;;;5.88;3.55;;;23.50;99.90;;;;;;2482090;23;20334;-73
2023/09/06 20:44:20;;;;;;;6.72;3.90;;;23.40;99.90;;;;;;2469842;24;20061;-73
2023/09/06 20:45:20;;;;;;;6.45;3.42;;;23.40;99.90;;;;;;2482113;23;20072;-73
2023/09/06 20:46:21;;;;;;;5.25;3.72;;;23.40;99.90;;;;;;2494752;23;20011;-73
2023/09/06 20:47:21;;;;;;;8.93;3.72;;;23.30;99.90;;;;;;2494499;23;20010;-73
2023/09/06 20:48:23;;;;;;;4.45;3.47;;;23.30;99.90;;;;;;2494550;23;20008;-73
2023/09/06 20:49:24;;;;;;;4.45;3.28;;;23.30;99.90;;;;;;2480612;23;20027;-73
2023/09/06 20:50:27;;;;;;;9.32;3.20;;;23.30;99.90;;;;;;2481851;23;20088;-73
2023/09/06 20:51:28;;;;;;;4.75;3.28;;;23.20;99.90;;;;;;2481401;23;20012;-73
2023/09/06 20:52:28;;;;;;;5.90;3.70;;;23.20;99.90;;;;;;2481595;23;20079;-73
2023/09/06 20:53:32;;;;;;;7.88;3.45;;;23.20;99.90;;;;;;2493116;23;20007;-73
2023/09/06 20:54:33;;;;;;;4.47;3.30;;;23.20;99.90;;;;;;2494179;23;20000;-73
2023/09/06 20:55:34;;;;;;;3.20;3.00;;;23.00;99.90;;;;;;2493919;23;20011;-73
2023/09/06 20:56:34;;;;;;;7.50;3.17;;;23.00;99.90;;;;;;2482407;23;20079;-73
2023/09/06 20:57:35;;;;;;;4.88;3.30;;;23.00;99.90;;;;;;2481982;23;20019;-73
2023/09/06 20:58:35;;;;;;;4.63;3.38;;;23.00;99.90;;;;;;2494489;23;20008;-73
2023/09/06 20:59:36;;;;;;;4.22;3.47;;;23.00;99.90;;;;;;2493992;23;20590;-73
2023/09/06 21:00:37;;;;;;;3.63;3.28;;;22.90;99.90;;;;;;2495191;23;20391;-73
2023/09/06 21:01:37;;;;;;;4.50;3.20;;;22.90;99.90;;;;;;2495192;23;20011;-73
2023/09/06 21:02:38;;;;;;;5.50;3.08;;;22.90;99.90;;;;;;2494868;23;20015;-73
2023/09/06 21:03:40;;;;;;;5.32;3.40;;;22.80;99.90;;;;;;2495150;23;20336;-73
2023/09/06 21:04:41;;;;;;;5.60;3.60;;;22.80;99.90;;;;;;2495343;23;20058;-73
2023/09/06 21:05:41;;;;;;;4.55;3.60;;;22.80;99.90;;;;;;2482133;23;20432;-73
2023/09/06 21:06:42;;;;;;;6.30;3.75;;;22.80;99.90;;;;;;2482365;23;20031;-73
2023/09/06 21:07:42;;;;;;;4.40;3.33;;;22.70;99.90;;;;;;2495375;23;20007;-73
2023/09/06 21:08:43;;;;;;;4.72;3.50;;;22.70;99.90;;;;;;2482043;23;20004;-73
2023/09/06 21:09:44;;;;;;;3.40;3.10;;;22.70;99.90;;;;;;2482279;23;20336;-73
2023/09/06 21:10:45;;;;;;;5.35;3.70;;;22.60;99.90;;;;;;2493962;23;20014;-73
2023/09/06 21:11:45;;;;;;;3.13;2.90;;;22.60;99.90;;;;;;2495460;23;20011;-73
2023/09/06 21:12:46;;;;;;;6.15;3.65;;;22.60;99.90;;;;;;2495084;23;20011;-73
2023/09/06 21:13:46;;;;;;;6.38;3.85;;;22.50;99.90;;;;;;2482851;23;20008;-73
2023/09/06 21:14:47;;;;;;;8.05;3.40;;;22.50;99.90;;;;;;2482894;23;20455;-73
2023/09/06 21:15:49;;;;;;;4.30;3.38;;;22.50;99.90;;;;;;2495456;23;20034;-73
2023/09/06 21:16:50;;;;;;;9.55;3.63;;;22.50;99.90;;;;;;2495288;23;20058;-73
2023/09/06 21:17:53;;;;;;;3.50;3.20;;;22.40;99.90;;;;;;2495231;23;20007;-73
2023/09/06 21:18:54;;;;;;;6.55;3.45;;;22.40;99.90;;;;;;2494866;23;20007;-73
2023/09/06 21:19:55;;;;;;;6.43;3.50;;;22.40;99.90;;;;;;2482654;23;20016;-73
2023/09/06 21:20:55;;;;;;;7.15;3.10;;;22.30;99.90;;;;;;2482567;23;20075;-73
2023/09/06 21:21:56;;;;;;;4.50;3.72;;;22.30;99.90;;;;;;2495269;23;20336;-73
2023/09/06 21:22:57;;;;;;;3.78;3.20;;;22.30;99.90;;;;;;2495491;23;19995;-73
2023/09/06 21:23:57;;;;;;;4.45;3.70;;;22.30;99.90;;;;;;2494972;23;20006;-73
2023/09/06 21:24:58;;;;;;;6.45;3.70;;;22.20;99.90;;;;;;2482807;23;20014;-73
2023/09/06 21:25:59;;;;;;;3.50;3.20;;;22.20;99.90;;;;;;2483042;23;20061;-73
2023/09/06 21:27:00;;;;;;;6.10;2.88;;;22.20;99.90;;;;;;2495167;23;20095;-73
2023/09/06 21:28:00;;;;;;;5.70;3.10;;;22.20;99.90;;;;;;2495743;23;20064;-73
2023/09/06 21:29:01;;;;;;;5.25;2.97;;;22.10;99.90;;;;;;2493023;23;20011;-73
2023/09/06 21:30:02;;;;;;;4.20;3.42;;;22.10;99.90;;;;;;2494387;23;20608;-73
2023/09/06 21:31:03;;;;;;;6.93;3.13;;;22.10;99.90;;;;;;2495709;23;20029;-73
2023/09/06 21:32:04;;;;;;;5.13;3.95;;;22.10;99.90;;;;;;2494488;23;20006;-73
2023/09/06 21:33:04;;;;;;;3.83;3.25;;;22.00;99.90;;;;;;2495671;23;20580;-73
2023/09/06 21:34:05;;;;;;;6.03;3.45;;;22.00;99.90;;;;;;2495274;23;20027;-73
2023/09/06 21:35:06;;;;;;;7.55;3.50;;;22.00;99.90;;;;;;2494760;23;20034;-73
2023/09/06 21:36:06;;;;;;;5.78;3.50;;;22.00;99.90;;;;;;2495707;23;20309;-73
2023/09/06 21:37:07;;;;;;;8.27;3.80;;;21.90;99.90;;;;;;2494932;23;20002;-73
2023/09/06 21:38:08;;;;;;;5.95;3.58;;;21.90;99.90;;;;;;2494488;23;20423;-73
2023/09/06 21:39:09;;;;;;;8.15;3.72;;;21.90;99.90;;;;;;2493689;23;20498;-73
2023/09/06 21:40:10;;;;;;;4.35;3.38;;;21.90;99.90;;;;;;2495096;23;20122;-73
2023/09/06 21:41:10;;;;;;;5.90;3.45;;;21.90;99.90;;;;;;2482245;23;20015;-73
2023/09/06 21:42:11;;;;;;;6.05;3.60;;;21.80;99.90;;;;;;2482613;23;20049;-73
2023/09/06 21:43:13;;;;;;;4.68;3.45;;;21.80;99.90;;;;;;2495471;23;19999;-73
2023/09/06 21:44:14;;;;;;;6.32;3.40;;;21.80;99.90;;;;;;2495364;23;20082;-73
2023/09/06 21:45:14;;;;;;;6.75;3.40;;;21.80;99.90;;;;;;2495320;23;20007;-73
2023/09/06 21:46:15;;;;;;;6.30;3.45;;;21.80;99.90;;;;;;2494961;23;20074;-73
2023/09/06 21:47:16;;;;;;;4.88;3.47;;;21.70;99.90;;;;;;2495429;23;20074;-73
2023/09/06 21:48:16;;;;;;;5.22;3.40;;;21.70;99.90;;;;;;2495157;23;20037;-73
2023/09/06 21:49:17;;;;;;;7.75;3.20;;;21.70;99.90;;;;;;2493707;23;20003;-73
2023/09/06 21:50:17;;;;;;;3.67;3.20;;;21.60;99.90;;;;;;2495440;23;20487;-73
2023/09/06 21:51:18;;;;;;;5.90;3.20;;;21.60;99.90;;;;;;2494859;23;20007;-73
2023/09/06 21:52:19;;;;;;;5.32;3.38;;;21.60;99.90;;;;;;2495707;23;20015;-73
2023/09/06 21:53:20;;;;;;;4.95;3.42;;;21.60;99.90;;;;;;2494937;23;20007;-73
2023/09/06 21:54:21;;;;;;;3.67;3.30;;;21.60;99.90;;;;;;2494702;23;20022;-73
2023/09/06 21:55:21;;;;;;;4.93;3.60;;;21.60;99.90;;;;;;2495314;23;20003;-73
2023/09/06 21:56:22;;;;;;;6.07;3.58;;;21.50;99.90;;;;;;2495334;23;20014;-73
2023/09/06 21:57:22;;;;;;;5.97;3.28;;;21.50;99.90;;;;;;2494453;23;20011;-72
2023/09/06 21:58:23;;;;;;;3.85;3.50;;;21.50;99.90;;;;;;2483184;23;20015;-73
2023/09/06 21:59:23;;;;;;;7.85;3.90;;;21.50;99.90;;;;;;2481263;23;20014;-73
2023/09/06 22:00:28;;;;;;;3.15;2.95;;;21.50;99.90;;;;;;2494523;23;20007;-73
2023/09/06 22:01:29;;;;;;;7.40;3.40;;;21.50;99.90;;;;;;2493173;23;20749;-73
2023/09/06 22:02:29;;;;;;;4.38;3.90;;;21.40;99.90;;;;;;2482484;23;20012;-73
2023/09/06 22:03:30;;;;;;;4.53;3.70;;;21.40;99.90;;;;;;2495338;23;20003;-73
2023/09/06 22:04:31;;;;;;;3.58;3.03;;;21.40;99.90;;;;;;2482048;23;20079;-72
2023/09/06 22:05:31;;;;;;;7.72;3.17;;;21.40;99.90;;;;;;2482181;23;20007;-73
2023/09/06 22:06:33;;;;;;;3.78;3.45;;;21.40;99.90;;;;;;2482340;23;20012;-72
2023/09/06 22:07:33;;;;;;;3.85;3.10;;;21.30;99.90;;;;;;2482294;23;20011;-73
2023/09/06 22:08:34;;;;;;;4.97;3.35;;;21.30;99.90;;;;;;2482378;23;20035;-73
2023/09/06 22:09:35;;;;;;;3.50;3.13;;;21.30;99.90;;;;;;2493766;23;20030;-73
2023/09/06 22:10:35;;;;;;;5.63;3.38;;;21.30;99.90;;;;;;2494476;23;20012;-73
2023/09/06 22:11:36;;;;;;;5.03;3.75;;;21.30;99.90;;;;;;2494948;23;20082;-72
2023/09/06 22:12:36;;;;;;;5.32;3.10;;;21.20;99.90;;;;;;2495036;23;20014;-72
2023/09/06 22:13:37;;;;;;;4.43;3.22;;;21.20;99.90;;;;;;2495236;23;20420;-72
2023/09/06 22:14:38;;;;;;;5.18;3.25;;;21.20;99.90;;;;;;2494834;23;20636;-73
2023/09/06 22:15:39;;;;;;;3.72;3.20;;;21.20;99.90;;;;;;2495166;23;20011;-72
2023/09/06 22:16:39;;;;;;;3.95;3.47;;;21.20;99.90;;;;;;2495054;23;20003;-73
2023/09/06 22:17:41;;;;;;;4.47;3.22;;;21.10;99.90;;;;;;2494696;23;20007;-73
2023/09/06 22:18:41;;;;;;;8.88;3.78;;;21.10;99.90;;;;;;2495827;23;20083;-72
2023/09/06 22:19:42;;;;;;;4.10;3.58;;;21.10;99.90;;;;;;2493696;23;20010;-72
2023/09/06 22:20:42;;;;;;;4.95;3.35;;;21.10;99.90;;;;;;2495080;23;20416;-72
2023/09/06 22:21:43;;;;;;;4.90;3.47;;;21.10;99.90;;;;;;2495475;23;20059;-72
2023/09/06 22:22:44;;;;;;;5.40;3.28;;;21.10;99.90;;;;;;2494905;23;20364;-73
2023/09/06 22:23:45;;;;;;;4.93;3.58;;;21.00;99.90;;;;;;2494958;23;20424;-73
2023/09/06 22:24:45;;;;;;;4.40;3.10;;;21.00;99.90;;;;;;2494429;23;20325;-72
2023/09/06 22:25:57;;;;;;;3.75;3.35;;;21.00;99.90;;;;;;2494887;23;19999;-73
2023/09/06 22:26:58;;;;;;;4.07;3.10;;;21.00;99.90;;;;;;2495645;23;20678;-72
2023/09/06 22:28:04;;;;;;;4.65;3.55;;;21.00;99.90;;;;;;2493707;23;20007;-72
2023/09/06 22:29:05;;;;;;;5.13;3.70;;;20.90;99.90;;;;;;2481725;23;20026;-72
2023/09/06 22:30:06;;;;;;;6.35;3.40;;;20.90;99.90;;;;;;2482871;23;20011;-73
2023/09/06 22:31:07;;;;;;;4.13;3.72;;;20.90;99.90;;;;;;2494836;23;20394;-72
2023/09/06 22:32:07;;;;;;;4.35;3.40;;;20.90;99.90;;;;;;2495265;23;19999;-73
2023/09/06 22:33:08;;;;;;;4.72;3.58;;;20.90;99.90;;;;;;2495273;23;20361;-73
2023/09/06 22:34:09;;;;;;;4.78;3.50;;;20.90;99.90;;;;;;2494898;23;20588;-72
2023/09/06 22:35:10;;;;;;;4.70;3.33;;;20.80;99.90;;;;;;2495056;23;19995;-72
2023/09/06 22:36:10;;;;;;;4.65;3.78;;;20.80;99.90;;;;;;2495519;23;20050;-73
2023/09/06 22:37:11;;;;;;;3.70;3.30;;;20.80;99.90;;;;;;2495056;23;20090;-72
2023/09/06 22:38:11;;;;;;;5.53;3.50;;;20.70;99.90;;;;;;2495268;23;20007;-72
2023/09/06 22:39:12;;;;;;;4.32;3.45;;;20.70;99.90;;;;;;2492495;23;20779;-72
2023/09/06 22:40:13;;;;;;;4.75;4.20;;;20.70;99.90;;;;;;2494481;23;20039;-72
2023/09/06 22:41:13;;;;;;;4.30;3.90;;;20.70;99.90;;;;;;2495416;23;20035;-72
2023/09/06 22:42:14;;;;;;;5.70;3.35;;;20.70;99.90;;;;;;2495091;23;20319;-72